sensor_id;sensor_type;location;lat;lon;timestamp;temperature;humidity
45849;DHT22;31567;54.600;9.842;2023-09-19T00:01:50;18.80;99.60
45849;DHT22;31567;54.600;9.842;2023-09-19T00:05:34;18.80;99.80
45849;DHT22;31567;54.600;9.842;2023-09-19T00:09:14;18.70;99.80
45849;DHT22;31567;54.600;9.842;2023-09-19T00:12:54;18.70;99.90
45849;DHT22;31567;54.600;9.842;2023-09-19T00:16:38;18.80;99.90
45849;DHT22;31567;54.600;9.842;2023-09-19T00:20:17;18.80;99.90
45849;DHT22;31567;54.600;9.842;2023-09-19T00:23:57;18.70;99.90
45849;DHT22;31567;54.600;9.842;2023-09-19T00:27:40;18.70;99.90
45849;DHT22;31567;54.600;9.842;2023-09-19T00:31:22;18.60;99.90
45849;DHT22;31567;54.600;9.842;2023-09-19T00:35:02;18.50;99.90
45849;DHT22;31567;54.600;9.842;2023-09-19T00:38:42;18.50;99.90
45849;DHT22;31567;54.600;9.842;2023-09-19T00:42:23;18.50;99.90
45849;DHT22;31567;54.600;9.842;2023-09-19T00:46:05;18.40;99.90
45849;DHT22;31567;54.600;9.842;2023-09-19T00:49:45;18.30;99.90
45849;DHT22;31567;54.600;9.842;2023-09-19T00:53:30;18.30;99.90
45849;DHT22;31567;54.600;9.842;2023-09-19T00:57:10;18.30;99.90
45849;DHT22;31567;54.600;9.842;2023-09-19T01:00:51;18.20;99.90
45849;DHT22;31567;54.600;9.842;2023-09-19T01:04:32;18.10;99.90
45849;DHT22;31567;54.600;9.842;2023-09-19T01:08:12;18.10;99.90
45849;DHT22;31567;54.600;9.842;2023-09-19T01:11:58;18.10;99.90
45849;DHT22;31567;54.600;9.842;2023-09-19T01:19:51;18.00;99.90
45849;DHT22;31567;54.600;9.842;2023-09-19T01:24:02;17.90;99.90
45849;DHT22;31567;54.600;9.842;2023-09-19T01:31:51;17.80;99.90
45849;DHT22;31567;54.600;9.842;2023-09-19T01:35:33;17.90;99.90
45849;DHT22;31567;54.600;9.842;2023-09-19T01:39:14;17.80;99.90
45849;DHT22;31567;54.600;9.842;2023-09-19T01:43:05;17.80;99.90
45849;DHT22;31567;54.600;9.842;2023-09-19T01:46:48;17.80;99.90
45849;DHT22;31567;54.600;9.842;2023-09-19T01:51:05;17.70;99.90
45849;DHT22;31567;54.600;9.842;2023-09-19T01:54:51;17.70;99.90
45849;DHT22;31567;54.600;9.842;2023-09-19T01:58:47;17.70;99.90
45849;DHT22;31567;54.600;9.842;2023-09-19T02:02:28;17.70;99.90
45849;DHT22;31567;54.600;9.842;2023-09-19T02:06:08;17.60;99.90
45849;DHT22;31567;54.600;9.842;2023-09-19T02:09:53;17.50;99.90
45849;DHT22;31567;54.600;9.842;2023-09-19T02:13:34;17.60;99.80
45849;DHT22;31567;54.600;9.842;2023-09-19T02:17:14;17.50;99.80
45849;DHT22;31567;54.600;9.842;2023-09-19T02:20:53;17.50;99.70
45849;DHT22;31567;54.600;9.842;2023-09-19T02:24:33;17.50;99.80
45849;DHT22;31567;54.600;9.842;2023-09-19T02:28:14;17.50;99.80
45849;DHT22;31567;54.600;9.842;2023-09-19T02:31:53;17.50;99.90
45849;DHT22;31567;54.600;9.842;2023-09-19T02:35:35;17.50;99.90
45849;DHT22;31567;54.600;9.842;2023-09-19T02:39:15;17.40;99.90
45849;DHT22;31567;54.600;9.842;2023-09-19T02:42:55;17.40;99.90
45849;DHT22;31567;54.600;9.842;2023-09-19T02:46:35;17.40;99.90
45849;DHT22;31567;54.600;9.842;2023-09-19T02:50:18;17.40;99.90
45849;DHT22;31567;54.600;9.842;2023-09-19T02:53:59;17.30;99.90
45849;DHT22;31567;54.600;9.842;2023-09-19T02:57:38;17.30;99.90
45849;DHT22;31567;54.600;9.842;2023-09-19T03:01:20;17.30;99.90
45849;DHT22;31567;54.600;9.842;2023-09-19T03:05:00;17.20;99.90
45849;DHT22;31567;54.600;9.842;2023-09-19T03:08:40;17.30;99.90
45849;DHT22;31567;54.600;9.842;2023-09-19T03:12:21;17.30;99.90
45849;DHT22;31567;54.600;9.842;2023-09-19T03:16:01;17.10;99.90
45849;DHT22;31567;54.600;9.842;2023-09-19T03:19:40;16.90;99.90
45849;DHT22;31567;54.600;9.842;2023-09-19T03:23:20;16.70;99.80
45849;DHT22;31567;54.600;9.842;2023-09-19T03:26:59;16.30;99.30
45849;DHT22;31567;54.600;9.842;2023-09-19T03:30:39;16.20;99.40
45849;DHT22;31567;54.600;9.842;2023-09-19T03:34:19;16.00;99.70
45849;DHT22;31567;54.600;9.842;2023-09-19T03:37:59;15.90;99.90
45849;DHT22;31567;54.600;9.842;2023-09-19T03:41:38;15.80;99.90
45849;DHT22;31567;54.600;9.842;2023-09-19T03:45:18;15.70;99.90
45849;DHT22;31567;54.600;9.842;2023-09-19T03:48:58;15.60;99.90
45849;DHT22;31567;54.600;9.842;2023-09-19T03:52:38;15.60;99.90
45849;DHT22;31567;54.600;9.842;2023-09-19T03:56:17;15.50;99.90
45849;DHT22;31567;54.600;9.842;2023-09-19T03:59:57;15.50;99.90
45849;DHT22;31567;54.600;9.842;2023-09-19T04:03:36;15.40;99.90
45849;DHT22;31567;54.600;9.842;2023-09-19T04:07:26;15.50;99.90
45849;DHT22;31567;54.600;9.842;2023-09-19T04:11:08;15.40;99.90
45849;DHT22;31567;54.600;9.842;2023-09-19T04:14:48;15.50;99.90
45849;DHT22;31567;54.600;9.842;2023-09-19T04:18:29;15.50;99.90
45849;DHT22;31567;54.600;9.842;2023-09-19T04:22:12;15.50;99.90
45849;DHT22;31567;54.600;9.842;2023-09-19T04:25:52;15.40;99.90
45849;DHT22;31567;54.600;9.842;2023-09-19T04:29:31;15.50;99.90
45849;DHT22;31567;54.600;9.842;2023-09-19T04:33:12;15.50;99.90
45849;DHT22;31567;54.600;9.842;2023-09-19T04:36:53;15.50;99.90
45849;DHT22;31567;54.600;9.842;2023-09-19T04:40:33;15.60;99.90
45849;DHT22;31567;54.600;9.842;2023-09-19T04:44:13;15.60;99.90
45849;DHT22;31567;54.600;9.842;2023-09-19T04:47:53;15.60;99.90
45849;DHT22;31567;54.600;9.842;2023-09-19T04:51:33;15.70;99.90
45849;DHT22;31567;54.600;9.842;2023-09-19T04:55:15;15.70;99.90
45849;DHT22;31567;54.600;9.842;2023-09-19T04:58:59;15.70;99.90
45849;DHT22;31567;54.600;9.842;2023-09-19T05:02:39;15.70;99.90
45849;DHT22;31567;54.600;9.842;2023-09-19T05:06:19;15.70;99.90
45849;DHT22;31567;54.600;9.842;2023-09-19T05:10:03;15.60;99.90
45849;DHT22;31567;54.600;9.842;2023-09-19T05:13:44;15.60;99.90
45849;DHT22;31567;54.600;9.842;2023-09-19T05:17:24;15.50;99.90
45849;DHT22;31567;54.600;9.842;2023-09-19T05:21:04;15.50;99.90
45849;DHT22;31567;54.600;9.842;2023-09-19T05:24:44;15.60;99.90
45849;DHT22;31567;54.600;9.842;2023-09-19T05:28:26;15.70;99.90
45849;DHT22;31567;54.600;9.842;2023-09-19T05:32:06;15.60;99.90
45849;DHT22;31567;54.600;9.842;2023-09-19T05:35:48;15.50;99.90
45849;DHT22;31567;54.600;9.842;2023-09-19T05:39:27;15.50;99.90
45849;DHT22;31567;54.600;9.842;2023-09-19T05:43:07;15.50;99.90
45849;DHT22;31567;54.600;9.842;2023-09-19T05:46:47;15.40;99.90
45849;DHT22;31567;54.600;9.842;2023-09-19T05:50:27;15.40;99.90
45849;DHT22;31567;54.600;9.842;2023-09-19T05:54:07;15.40;99.90
45849;DHT22;31567;54.600;9.842;2023-09-19T05:57:50;15.30;99.90
45849;DHT22;31567;54.600;9.842;2023-09-19T06:01:30;15.30;99.90
45849;DHT22;31567;54.600;9.842;2023-09-19T06:05:11;15.20;99.90
45849;DHT22;31567;54.600;9.842;2023-09-19T06:08:51;15.10;99.90
45849;DHT22;31567;54.600;9.842;2023-09-19T06:12:30;15.10;99.90
45849;DHT22;31567;54.600;9.842;2023-09-19T06:16:13;15.00;99.90
45849;DHT22;31567;54.600;9.842;2023-09-19T06:19:52;14.80;99.90
45849;DHT22;31567;54.600;9.842;2023-09-19T06:23:32;14.80;99.90
45849;DHT22;31567;54.600;9.842;2023-09-19T06:27:12;14.70;99.90
45849;DHT22;31567;54.600;9.842;2023-09-19T06:30:51;14.70;99.90
45849;DHT22;31567;54.600;9.842;2023-09-19T06:34:31;14.70;99.90
45849;DHT22;31567;54.600;9.842;2023-09-19T06:38:11;14.50;99.90
45849;DHT22;31567;54.600;9.842;2023-09-19T06:41:52;14.50;99.90
45849;DHT22;31567;54.600;9.842;2023-09-19T06:45:34;14.40;99.90
45849;DHT22;31567;54.600;9.842;2023-09-19T06:49:14;14.30;99.90
45849;DHT22;31567;54.600;9.842;2023-09-19T06:52:55;14.10;99.90
45849;DHT22;31567;54.600;9.842;2023-09-19T06:56:36;14.20;99.90
45849;DHT22;31567;54.600;9.842;2023-09-19T07:00:16;14.10;99.90
45849;DHT22;31567;54.600;9.842;2023-09-19T07:04:01;14.10;99.90
45849;DHT22;31567;54.600;9.842;2023-09-19T07:07:40;14.10;99.90
45849;DHT22;31567;54.600;9.842;2023-09-19T07:11:20;14.10;99.90
45849;DHT22;31567;54.600;9.842;2023-09-19T07:15:00;14.20;99.90
45849;DHT22;31567;54.600;9.842;2023-09-19T07:18:40;14.30;99.90
45849;DHT22;31567;54.600;9.842;2023-09-19T07:22:19;14.30;99.90
45849;DHT22;31567;54.600;9.842;2023-09-19T07:26:01;14.40;99.90
45849;DHT22;31567;54.600;9.842;2023-09-19T07:29:40;14.50;99.90
45849;DHT22;31567;54.600;9.842;2023-09-19T07:33:20;14.60;99.90
45849;DHT22;31567;54.600;9.842;2023-09-19T07:36:59;14.80;99.90
45849;DHT22;31567;54.600;9.842;2023-09-19T07:40:39;14.90;99.90
45849;DHT22;31567;54.600;9.842;2023-09-19T07:44:19;15.00;99.90
45849;DHT22;31567;54.600;9.842;2023-09-19T07:47:59;15.00;99.90
45849;DHT22;31567;54.600;9.842;2023-09-19T07:51:43;15.00;99.90
45849;DHT22;31567;54.600;9.842;2023-09-19T07:55:25;15.00;99.90
45849;DHT22;31567;54.600;9.842;2023-09-19T07:59:05;15.10;99.90
45849;DHT22;31567;54.600;9.842;2023-09-19T08:02:45;15.10;99.90
45849;DHT22;31567;54.600;9.842;2023-09-19T08:06:24;15.20;99.90
45849;DHT22;31567;54.600;9.842;2023-09-19T08:10:09;15.30;99.90
45849;DHT22;31567;54.600;9.842;2023-09-19T08:13:55;15.30;99.90
45849;DHT22;31567;54.600;9.842;2023-09-19T08:17:35;15.40;99.90
45849;DHT22;31567;54.600;9.842;2023-09-19T08:21:15;15.40;99.90
45849;DHT22;31567;54.600;9.842;2023-09-19T08:24:55;15.50;99.90
45849;DHT22;31567;54.600;9.842;2023-09-19T08:28:35;15.60;99.90
45849;DHT22;31567;54.600;9.842;2023-09-19T08:32:15;15.70;99.90
45849;DHT22;31567;54.600;9.842;2023-09-19T08:35:55;15.70;99.90
45849;DHT22;31567;54.600;9.842;2023-09-19T08:39:35;15.80;99.90
45849;DHT22;31567;54.600;9.842;2023-09-19T08:43:16;15.80;99.90
45849;DHT22;31567;54.600;9.842;2023-09-19T08:47:06;15.80;99.90
45849;DHT22;31567;54.600;9.842;2023-09-19T08:51:07;15.80;99.90
45849;DHT22;31567;54.600;9.842;2023-09-19T08:54:52;15.80;99.90
45849;DHT22;31567;54.600;9.842;2023-09-19T08:58:43;15.90;99.90
45849;DHT22;31567;54.600;9.842;2023-09-19T09:02:23;16.00;99.90
45849;DHT22;31567;54.600;9.842;2023-09-19T09:06:04;16.10;99.90
45849;DHT22;31567;54.600;9.842;2023-09-19T09:09:44;16.10;99.90
45849;DHT22;31567;54.600;9.842;2023-09-19T09:13:25;16.20;99.90
45849;DHT22;31567;54.600;9.842;2023-09-19T09:17:05;16.20;99.90
45849;DHT22;31567;54.600;9.842;2023-09-19T09:20:46;16.20;99.90
45849;DHT22;31567;54.600;9.842;2023-09-19T09:28:19;16.00;99.90
45849;DHT22;31567;54.600;9.842;2023-09-19T09:32:16;15.80;99.90
45849;DHT22;31567;54.600;9.842;2023-09-19T09:35:58;15.80;99.90
45849;DHT22;31567;54.600;9.842;2023-09-19T09:39:49;15.70;99.90
45849;DHT22;31567;54.600;9.842;2023-09-19T09:43:35;15.60;99.90
45849;DHT22;31567;54.600;9.842;2023-09-19T09:47:45;15.60;99.90
45849;DHT22;31567;54.600;9.842;2023-09-19T09:51:37;15.80;99.90
45849;DHT22;31567;54.600;9.842;2023-09-19T09:55:18;15.90;99.90
45849;DHT22;31567;54.600;9.842;2023-09-19T09:58:59;16.00;99.90
45849;DHT22;31567;54.600;9.842;2023-09-19T10:02:39;16.00;99.90
45849;DHT22;31567;54.600;9.842;2023-09-19T10:06:20;16.00;99.90
45849;DHT22;31567;54.600;9.842;2023-09-19T10:10:06;16.10;99.90
45849;DHT22;31567;54.600;9.842;2023-09-19T10:13:55;16.30;99.90
45849;DHT22;31567;54.600;9.842;2023-09-19T10:17:36;16.40;99.90
45849;DHT22;31567;54.600;9.842;2023-09-19T10:21:16;16.60;99.90
45849;DHT22;31567;54.600;9.842;2023-09-19T10:25:02;16.70;99.90
45849;DHT22;31567;54.600;9.842;2023-09-19T10:28:47;16.90;99.90
45849;DHT22;31567;54.600;9.842;2023-09-19T10:32:30;17.00;99.50
45849;DHT22;31567;54.600;9.842;2023-09-19T10:36:12;17.20;99.40
45849;DHT22;31567;54.600;9.842;2023-09-19T10:39:53;17.30;98.80
45849;DHT22;31567;54.600;9.842;2023-09-19T10:43:38;17.20;97.90
45849;DHT22;31567;54.600;9.842;2023-09-19T10:47:19;17.20;97.80
45849;DHT22;31567;54.600;9.842;2023-09-19T10:51:09;17.40;98.30
45849;DHT22;31567;54.600;9.842;2023-09-19T10:54:52;17.60;97.50
45849;DHT22;31567;54.600;9.842;2023-09-19T10:58:34;17.70;97.50
45849;DHT22;31567;54.600;9.842;2023-09-19T11:02:17;17.60;97.20
45849;DHT22;31567;54.600;9.842;2023-09-19T11:09:55;17.80;96.80
45849;DHT22;31567;54.600;9.842;2023-09-19T11:13:38;17.90;97.20
45849;DHT22;31567;54.600;9.842;2023-09-19T11:29:26;17.70;96.30
45849;DHT22;31567;54.600;9.842;2023-09-19T11:33:27;17.70;96.40
45849;DHT22;31567;54.600;9.842;2023-09-19T11:45:01;17.60;96.20
45849;DHT22;31567;54.600;9.842;2023-09-19T11:48:41;17.50;96.40
45849;DHT22;31567;54.600;9.842;2023-09-19T11:52:24;17.40;96.20
45849;DHT22;31567;54.600;9.842;2023-09-19T11:56:06;17.40;95.80
45849;DHT22;31567;54.600;9.842;2023-09-19T11:59:49;17.40;95.90
45849;DHT22;31567;54.600;9.842;2023-09-19T12:03:29;17.40;95.90
45849;DHT22;31567;54.600;9.842;2023-09-19T12:07:14;17.40;95.70
45849;DHT22;31567;54.600;9.842;2023-09-19T12:10:55;17.50;96.40
45849;DHT22;31567;54.600;9.842;2023-09-19T12:14:35;17.60;96.40
45849;DHT22;31567;54.600;9.842;2023-09-19T12:18:30;17.70;95.80
45849;DHT22;31567;54.600;9.842;2023-09-19T12:22:10;17.90;95.60
45849;DHT22;31567;54.600;9.842;2023-09-19T12:25:49;18.00;95.50
45849;DHT22;31567;54.600;9.842;2023-09-19T12:29:46;18.00;94.90
45849;DHT22;31567;54.600;9.842;2023-09-19T12:33:26;18.10;95.50
45849;DHT22;31567;54.600;9.842;2023-09-19T12:37:10;18.20;95.20
45849;DHT22;31567;54.600;9.842;2023-09-19T12:41:02;18.20;94.90
45849;DHT22;31567;54.600;9.842;2023-09-19T12:44:44;18.30;95.40
45849;DHT22;31567;54.600;9.842;2023-09-19T12:48:25;18.40;95.10
45849;DHT22;31567;54.600;9.842;2023-09-19T12:52:13;18.30;94.30
45849;DHT22;31567;54.600;9.842;2023-09-19T12:55:59;18.30;94.70
45849;DHT22;31567;54.600;9.842;2023-09-19T12:59:39;18.20;95.30
45849;DHT22;31567;54.600;9.842;2023-09-19T13:03:29;18.20;94.90
45849;DHT22;31567;54.600;9.842;2023-09-19T13:07:43;18.10;94.80
45849;DHT22;31567;54.600;9.842;2023-09-19T13:11:23;18.10;95.30
45849;DHT22;31567;54.600;9.842;2023-09-19T13:15:13;18.10;94.90
45849;DHT22;31567;54.600;9.842;2023-09-19T13:18:59;18.10;95.10
45849;DHT22;31567;54.600;9.842;2023-09-19T13:22:42;18.00;95.20
45849;DHT22;31567;54.600;9.842;2023-09-19T13:26:25;18.10;94.80
45849;DHT22;31567;54.600;9.842;2023-09-19T13:30:05;18.10;94.60
45849;DHT22;31567;54.600;9.842;2023-09-19T13:33:47;18.00;94.60
45849;DHT22;31567;54.600;9.842;2023-09-19T13:37:27;18.10;94.70
45849;DHT22;31567;54.600;9.842;2023-09-19T13:41:06;18.10;94.80
45849;DHT22;31567;54.600;9.842;2023-09-19T13:44:46;18.10;94.60
45849;DHT22;31567;54.600;9.842;2023-09-19T13:48:25;18.10;94.60
45849;DHT22;31567;54.600;9.842;2023-09-19T13:52:05;18.20;94.30
45849;DHT22;31567;54.600;9.842;2023-09-19T13:55:45;18.20;94.60
45849;DHT22;31567;54.600;9.842;2023-09-19T13:59:24;18.20;94.90
45849;DHT22;31567;54.600;9.842;2023-09-19T14:03:04;18.30;95.00
45849;DHT22;31567;54.600;9.842;2023-09-19T14:06:43;18.30;94.90
45849;DHT22;31567;54.600;9.842;2023-09-19T14:10:25;18.20;94.80
45849;DHT22;31567;54.600;9.842;2023-09-19T14:14:09;18.20;95.00
45849;DHT22;31567;54.600;9.842;2023-09-19T14:17:49;18.10;94.90
45849;DHT22;31567;54.600;9.842;2023-09-19T14:21:28;18.20;95.00
45849;DHT22;31567;54.600;9.842;2023-09-19T14:25:08;18.20;95.10
45849;DHT22;31567;54.600;9.842;2023-09-19T14:28:48;18.10;95.00
45849;DHT22;31567;54.600;9.842;2023-09-19T14:32:28;18.10;95.00
45849;DHT22;31567;54.600;9.842;2023-09-19T14:36:09;18.10;95.00
45849;DHT22;31567;54.600;9.842;2023-09-19T14:39:49;18.20;95.20
45849;DHT22;31567;54.600;9.842;2023-09-19T14:43:30;18.10;95.20
45849;DHT22;31567;54.600;9.842;2023-09-19T14:47:10;18.10;95.10
45849;DHT22;31567;54.600;9.842;2023-09-19T14:50:52;18.20;95.20
45849;DHT22;31567;54.600;9.842;2023-09-19T14:54:32;18.10;94.80
45849;DHT22;31567;54.600;9.842;2023-09-19T14:58:13;18.10;94.80
45849;DHT22;31567;54.600;9.842;2023-09-19T15:01:53;18.20;94.80
45849;DHT22;31567;54.600;9.842;2023-09-19T15:05:32;18.20;94.70
45849;DHT22;31567;54.600;9.842;2023-09-19T15:09:13;18.20;94.50
45849;DHT22;31567;54.600;9.842;2023-09-19T15:12:53;18.20;94.50
45849;DHT22;31567;54.600;9.842;2023-09-19T15:16:32;18.20;94.50
45849;DHT22;31567;54.600;9.842;2023-09-19T15:20:12;18.30;94.50
45849;DHT22;31567;54.600;9.842;2023-09-19T15:23:53;18.30;94.50
45849;DHT22;31567;54.600;9.842;2023-09-19T15:27:32;18.30;94.60
45849;DHT22;31567;54.600;9.842;2023-09-19T15:31:12;18.30;94.60
45849;DHT22;31567;54.600;9.842;2023-09-19T15:34:52;18.30;94.70
45849;DHT22;31567;54.600;9.842;2023-09-19T15:42:39;18.10;95.80
45849;DHT22;31567;54.600;9.842;2023-09-19T15:46:19;18.00;95.60
45849;DHT22;31567;54.600;9.842;2023-09-19T15:49:59;18.00;95.70
45849;DHT22;31567;54.600;9.842;2023-09-19T15:53:47;18.10;95.60
45849;DHT22;31567;54.600;9.842;2023-09-19T15:57:27;18.10;95.50
45849;DHT22;31567;54.600;9.842;2023-09-19T16:01:08;18.10;95.60
45849;DHT22;31567;54.600;9.842;2023-09-19T16:04:48;18.20;95.70
45849;DHT22;31567;54.600;9.842;2023-09-19T16:08:27;18.20;95.90
45849;DHT22;31567;54.600;9.842;2023-09-19T16:12:08;18.20;96.30
45849;DHT22;31567;54.600;9.842;2023-09-19T16:15:48;18.20;96.30
45849;DHT22;31567;54.600;9.842;2023-09-19T16:19:28;18.20;96.90
45849;DHT22;31567;54.600;9.842;2023-09-19T16:23:07;18.20;97.20
45849;DHT22;31567;54.600;9.842;2023-09-19T16:26:47;18.00;97.40
45849;DHT22;31567;54.600;9.842;2023-09-19T16:30:28;17.90;97.80
45849;DHT22;31567;54.600;9.842;2023-09-19T16:34:08;17.80;98.40
45849;DHT22;31567;54.600;9.842;2023-09-19T16:37:48;17.80;98.50
45849;DHT22;31567;54.600;9.842;2023-09-19T16:41:28;17.80;98.60
45849;DHT22;31567;54.600;9.842;2023-09-19T16:45:09;17.70;99.00
45849;DHT22;31567;54.600;9.842;2023-09-19T16:48:49;17.60;99.40
45849;DHT22;31567;54.600;9.842;2023-09-19T16:52:29;17.50;99.90
45849;DHT22;31567;54.600;9.842;2023-09-19T16:56:09;17.50;99.90
45849;DHT22;31567;54.600;9.842;2023-09-19T16:59:49;17.50;99.90
45849;DHT22;31567;54.600;9.842;2023-09-19T17:03:32;17.50;99.80
45849;DHT22;31567;54.600;9.842;2023-09-19T17:07:12;17.60;99.50
45849;DHT22;31567;54.600;9.842;2023-09-19T17:10:51;17.60;99.50
45849;DHT22;31567;54.600;9.842;2023-09-19T17:14:34;17.70;99.60
45849;DHT22;31567;54.600;9.842;2023-09-19T17:18:14;17.80;99.10
45849;DHT22;31567;54.600;9.842;2023-09-19T17:21:54;17.80;98.90
45849;DHT22;31567;54.600;9.842;2023-09-19T17:25:33;17.90;98.80
45849;DHT22;31567;54.600;9.842;2023-09-19T17:29:13;18.10;98.50
45849;DHT22;31567;54.600;9.842;2023-09-19T17:32:53;18.20;98.10
45849;DHT22;31567;54.600;9.842;2023-09-19T17:36:33;18.20;98.10
45849;DHT22;31567;54.600;9.842;2023-09-19T17:40:14;18.10;98.40
45849;DHT22;31567;54.600;9.842;2023-09-19T17:43:57;18.10;98.40
45849;DHT22;31567;54.600;9.842;2023-09-19T17:47:41;18.10;98.80
45849;DHT22;31567;54.600;9.842;2023-09-19T17:51:21;18.10;98.90
45849;DHT22;31567;54.600;9.842;2023-09-19T17:55:01;18.00;99.40
45849;DHT22;31567;54.600;9.842;2023-09-19T17:58:42;17.90;99.60
45849;DHT22;31567;54.600;9.842;2023-09-19T18:02:22;17.90;99.90
45849;DHT22;31567;54.600;9.842;2023-09-19T18:06:02;17.80;99.90
45849;DHT22;31567;54.600;9.842;2023-09-19T18:09:42;17.60;99.90
45849;DHT22;31567;54.600;9.842;2023-09-19T18:13:21;17.50;99.90
45849;DHT22;31567;54.600;9.842;2023-09-19T18:17:01;17.50;99.90
45849;DHT22;31567;54.600;9.842;2023-09-19T18:20:41;17.50;99.90
45849;DHT22;31567;54.600;9.842;2023-09-19T18:24:21;17.50;99.90
45849;DHT22;31567;54.600;9.842;2023-09-19T18:28:01;17.60;99.90
45849;DHT22;31567;54.600;9.842;2023-09-19T18:31:41;17.70;99.90
45849;DHT22;31567;54.600;9.842;2023-09-19T18:35:21;17.70;99.90
45849;DHT22;31567;54.600;9.842;2023-09-19T18:39:03;17.80;99.90
45849;DHT22;31567;54.600;9.842;2023-09-19T18:42:47;17.80;99.90
45849;DHT22;31567;54.600;9.842;2023-09-19T18:46:27;17.80;99.90
45849;DHT22;31567;54.600;9.842;2023-09-19T18:50:09;17.70;99.90
45849;DHT22;31567;54.600;9.842;2023-09-19T18:53:50;17.70;99.90
45849;DHT22;31567;54.600;9.842;2023-09-19T18:57:29;17.60;99.90
45849;DHT22;31567;54.600;9.842;2023-09-19T19:01:10;17.60;99.90
45849;DHT22;31567;54.600;9.842;2023-09-19T19:04:50;17.70;99.90
45849;DHT22;31567;54.600;9.842;2023-09-19T19:08:30;17.80;99.90
45849;DHT22;31567;54.600;9.842;2023-09-19T19:12:11;17.80;99.90
45849;DHT22;31567;54.600;9.842;2023-09-19T19:15:51;17.90;99.90
45849;DHT22;31567;54.600;9.842;2023-09-19T19:19:30;18.00;99.90
45849;DHT22;31567;54.600;9.842;2023-09-19T19:23:10;18.00;99.90
45849;DHT22;31567;54.600;9.842;2023-09-19T19:26:51;18.00;99.90
45849;DHT22;31567;54.600;9.842;2023-09-19T19:30:30;18.00;99.90
45849;DHT22;31567;54.600;9.842;2023-09-19T19:34:11;18.00;99.90
45849;DHT22;31567;54.600;9.842;2023-09-19T19:37:50;18.00;99.90
45849;DHT22;31567;54.600;9.842;2023-09-19T19:41:30;18.00;99.90
45849;DHT22;31567;54.600;9.842;2023-09-19T19:45:10;18.00;99.90
45849;DHT22;31567;54.600;9.842;2023-09-19T19:48:50;18.00;99.90
45849;DHT22;31567;54.600;9.842;2023-09-19T19:52:31;18.00;99.90
45849;DHT22;31567;54.600;9.842;2023-09-19T19:56:12;18.00;99.90
45849;DHT22;31567;54.600;9.842;2023-09-19T19:59:51;18.00;99.90
45849;DHT22;31567;54.600;9.842;2023-09-19T20:03:34;17.90;99.90
45849;DHT22;31567;54.600;9.842;2023-09-19T20:07:14;18.00;99.90
45849;DHT22;31567;54.600;9.842;2023-09-19T20:11:03;18.00;99.90
45849;DHT22;31567;54.600;9.842;2023-09-19T20:14:43;17.90;99.90
45849;DHT22;31567;54.600;9.842;2023-09-19T20:18:22;18.00;99.90
45849;DHT22;31567;54.600;9.842;2023-09-19T20:22:02;17.90;99.90
45849;DHT22;31567;54.600;9.842;2023-09-19T20:25:46;17.90;99.90
45849;DHT22;31567;54.600;9.842;2023-09-19T20:29:26;17.80;99.90
45849;DHT22;31567;54.600;9.842;2023-09-19T20:33:07;17.80;99.90
45849;DHT22;31567;54.600;9.842;2023-09-19T20:36:46;17.80;99.90
45849;DHT22;31567;54.600;9.842;2023-09-19T20:40:26;17.80;99.90
45849;DHT22;31567;54.600;9.842;2023-09-19T20:44:06;17.80;99.90
45849;DHT22;31567;54.600;9.842;2023-09-19T20:47:45;17.80;99.90
45849;DHT22;31567;54.600;9.842;2023-09-19T20:51:26;17.80;99.90
45849;DHT22;31567;54.600;9.842;2023-09-19T20:55:09;17.80;99.90
45849;DHT22;31567;54.600;9.842;2023-09-19T20:58:49;17.80;99.90
45849;DHT22;31567;54.600;9.842;2023-09-19T21:02:29;17.70;99.90
45849;DHT22;31567;54.600;9.842;2023-09-19T21:06:10;17.80;99.90
45849;DHT22;31567;54.600;9.842;2023-09-19T21:09:57;17.80;99.90
45849;DHT22;31567;54.600;9.842;2023-09-19T21:13:37;17.80;99.90
45849;DHT22;31567;54.600;9.842;2023-09-19T21:17:18;17.80;99.90
45849;DHT22;31567;54.600;9.842;2023-09-19T21:21:04;17.70;99.90
45849;DHT22;31567;54.600;9.842;2023-09-19T21:24:49;17.70;99.90
45849;DHT22;31567;54.600;9.842;2023-09-19T21:28:30;17.70;99.90
45849;DHT22;31567;54.600;9.842;2023-09-19T21:32:10;17.70;99.90
45849;DHT22;31567;54.600;9.842;2023-09-19T21:35:50;17.70;99.90
45849;DHT22;31567;54.600;9.842;2023-09-19T21:39:29;17.70;99.90
45849;DHT22;31567;54.600;9.842;2023-09-19T21:43:09;17.70;99.90
45849;DHT22;31567;54.600;9.842;2023-09-19T21:46:49;17.80;99.90
45849;DHT22;31567;54.600;9.842;2023-09-19T21:50:29;17.70;99.90
45849;DHT22;31567;54.600;9.842;2023-09-19T21:54:12;17.80;99.90
45849;DHT22;31567;54.600;9.842;2023-09-19T21:57:52;17.80;99.90
45849;DHT22;31567;54.600;9.842;2023-09-19T22:01:32;17.70;99.90
45849;DHT22;31567;54.600;9.842;2023-09-19T22:05:11;17.70;99.90
45849;DHT22;31567;54.600;9.842;2023-09-19T22:08:51;17.80;99.90
45849;DHT22;31567;54.600;9.842;2023-09-19T22:12:31;17.80;99.90
45849;DHT22;31567;54.600;9.842;2023-09-19T22:16:13;17.70;99.90
45849;DHT22;31567;54.600;9.842;2023-09-19T22:19:56;17.80;99.90
45849;DHT22;31567;54.600;9.842;2023-09-19T22:23:35;17.80;99.90
45849;DHT22;31567;54.600;9.842;2023-09-19T22:27:15;17.70;99.90
45849;DHT22;31567;54.600;9.842;2023-09-19T22:30:55;17.70;99.90
45849;DHT22;31567;54.600;9.842;2023-09-19T22:34:34;17.80;99.90
45849;DHT22;31567;54.600;9.842;2023-09-19T22:38:14;17.70;99.90
45849;DHT22;31567;54.600;9.842;2023-09-19T22:41:54;17.80;99.90
45849;DHT22;31567;54.600;9.842;2023-09-19T22:45:40;17.70;99.90
45849;DHT22;31567;54.600;9.842;2023-09-19T22:49:19;17.70;99.90
45849;DHT22;31567;54.600;9.842;2023-09-19T22:52:59;17.70;99.90
45849;DHT22;31567;54.600;9.842;2023-09-19T22:56:42;17.70;99.90
45849;DHT22;31567;54.600;9.842;2023-09-19T23:00:23;17.70;99.90
45849;DHT22;31567;54.600;9.842;2023-09-19T23:04:06;17.80;99.90
45849;DHT22;31567;54.600;9.842;2023-09-19T23:07:53;17.80;99.90
45849;DHT22;31567;54.600;9.842;2023-09-19T23:11:37;17.70;99.90
45849;DHT22;31567;54.600;9.842;2023-09-19T23:15:18;17.80;99.90
45849;DHT22;31567;54.600;9.842;2023-09-19T23:18:59;17.80;99.90
45849;DHT22;31567;54.600;9.842;2023-09-19T23:22:42;17.80;99.90
45849;DHT22;31567;54.600;9.842;2023-09-19T23:26:22;17.70;99.90
45849;DHT22;31567;54.600;9.842;2023-09-19T23:30:05;17.80;99.90
45849;DHT22;31567;54.600;9.842;2023-09-19T23:33:48;17.70;99.90
45849;DHT22;31567;54.600;9.842;2023-09-19T23:37:29;17.80;99.90
45849;DHT22;31567;54.600;9.842;2023-09-19T23:41:10;17.80;99.90
45849;DHT22;31567;54.600;9.842;2023-09-19T23:44:54;17.70;99.90
45849;DHT22;31567;54.600;9.842;2023-09-19T23:48:34;17.80;99.90
45849;DHT22;31567;54.600;9.842;2023-09-19T23:52:14;17.80;99.90
45849;DHT22;31567;54.600;9.842;2023-09-19T23:55:54;17.80;99.90
45849;DHT22;31567;54.600;9.842;2023-09-19T23:59:34;17.80;99.90
